createdAt,value
2022-11-14T00:01:12.864Z,29.13
2022-11-14T00:03:40.337Z,28.87
2022-11-14T00:06:08.288Z,26.10
2022-11-14T00:08:36.085Z,27.60
2022-11-14T00:11:03.525Z,22.00
2022-11-14T00:13:30.502Z,25.80
2022-11-14T00:15:57.472Z,28.20
2022-11-14T00:18:24.562Z,26.30
2022-11-14T00:20:53.365Z,27.40
2022-11-14T00:23:21.461Z,30.30
2022-11-14T00:25:49.113Z,25.60
2022-11-14T00:28:15.994Z,24.10
2022-11-14T00:30:49.960Z,20.67
2022-11-14T00:33:20.673Z,20.60
2022-11-14T00:35:55.842Z,23.30
2022-11-14T00:38:23.555Z,23.97
2022-11-14T00:40:51.611Z,23.10
2022-11-14T00:43:18.616Z,22.07
2022-11-14T00:45:46.511Z,22.43
2022-11-14T00:48:14.776Z,23.80
2022-11-14T00:50:42.098Z,24.03
2022-11-14T00:53:09.004Z,19.87
2022-11-14T00:55:35.918Z,23.10
2022-11-14T00:58:02.996Z,24.67
2022-11-14T01:00:30.050Z,23.60
2022-11-14T01:02:58.227Z,22.87
2022-11-14T01:05:25.812Z,25.03
2022-11-14T01:07:52.993Z,23.20
2022-11-14T01:10:20.947Z,21.60
2022-11-14T01:12:47.947Z,20.97
2022-11-14T01:15:14.920Z,21.70
2022-11-14T01:17:41.806Z,21.40
2022-11-14T01:20:09.123Z,25.30
2022-11-14T01:22:36.034Z,20.07
2022-11-14T01:25:02.984Z,20.17
2022-11-14T01:27:33.306Z,20.30
2022-11-14T01:30:00.206Z,17.57
2022-11-14T01:32:27.589Z,17.53
2022-11-14T01:34:54.568Z,22.57
2022-11-14T01:37:21.587Z,22.27
2022-11-14T01:39:48.579Z,18.47
2022-11-14T01:42:17.456Z,16.67
2022-11-14T01:44:52.570Z,17.03
2022-11-14T01:47:28.827Z,17.83
2022-11-14T01:50:00.559Z,16.63
2022-11-14T01:52:27.392Z,19.40
2022-11-14T01:54:58.632Z,17.47
2022-11-14T01:57:31.264Z,18.93
2022-11-14T02:00:05.533Z,19.03
2022-11-14T02:02:32.709Z,15.70
2022-11-14T02:05:09.581Z,15.17
2022-11-14T02:07:41.107Z,15.00
2022-11-14T02:10:19.048Z,18.23
2022-11-14T02:12:47.027Z,17.90
2022-11-14T02:15:14.887Z,18.80
2022-11-14T02:17:44.093Z,18.03
2022-11-14T02:20:32.553Z,16.60
2022-11-14T02:22:59.527Z,18.83
2022-11-14T02:25:26.653Z,19.83
2022-11-14T02:27:53.544Z,13.87
2022-11-14T02:30:23.261Z,18.70
2022-11-14T02:33:10.553Z,18.70
2022-11-14T02:35:38.481Z,19.67
2022-11-14T02:38:05.362Z,16.40
2022-11-14T02:40:32.524Z,16.73
2022-11-14T02:42:59.751Z,19.23
2022-11-14T02:45:27.295Z,17.47
2022-11-14T02:47:54.194Z,17.10
2022-11-14T02:50:21.185Z,13.70
2022-11-14T02:52:49.294Z,16.80
2022-11-14T02:55:16.321Z,18.00
2022-11-14T02:57:43.213Z,17.87
2022-11-14T03:00:14.861Z,17.20
2022-11-14T03:02:42.380Z,15.50
2022-11-14T03:05:09.358Z,15.50
2022-11-14T03:07:36.504Z,15.50
2022-11-14T03:10:03.923Z,16.83
2022-11-14T03:12:33.761Z,18.40
2022-11-14T03:15:00.636Z,18.07
2022-11-14T03:17:32.392Z,17.93
2022-11-14T03:19:59.556Z,18.20
2022-11-14T03:22:27.122Z,16.80
2022-11-14T03:24:54.050Z,17.23
2022-11-14T03:27:21.568Z,19.17
2022-11-14T03:29:49.066Z,19.40
2022-11-14T03:32:16.617Z,18.30
2022-11-14T03:34:43.770Z,18.47
2022-11-14T03:37:10.746Z,20.77
2022-11-14T03:39:37.858Z,17.67
2022-11-14T03:42:04.859Z,18.50
2022-11-14T03:44:31.860Z,18.97
2022-11-14T03:46:58.926Z,19.53
2022-11-14T03:49:28.785Z,19.53
2022-11-14T03:51:55.692Z,21.77
2022-11-14T03:54:22.615Z,21.30
2022-11-14T03:56:49.528Z,17.20
2022-11-14T03:59:16.526Z,20.10
2022-11-14T04:01:43.471Z,20.60
2022-11-14T04:04:12.959Z,22.43
2022-11-14T04:06:39.934Z,20.67
2022-11-14T04:09:07.350Z,20.23
2022-11-14T04:11:34.237Z,22.10
2022-11-14T04:14:01.167Z,22.80
2022-11-14T04:16:28.040Z,23.10
2022-11-14T04:18:54.955Z,24.77
2022-11-14T04:21:21.850Z,23.80
2022-11-14T04:23:48.791Z,24.77
2022-11-14T04:26:15.805Z,26.63
2022-11-14T04:28:42.681Z,29.00
2022-11-14T04:31:09.538Z,28.60
2022-11-14T04:33:36.497Z,27.87
2022-11-14T04:36:03.699Z,29.17
2022-11-14T04:38:30.985Z,29.10
2022-11-14T04:40:58.080Z,32.10
2022-11-14T04:43:24.983Z,37.40
2022-11-14T04:45:51.987Z,30.57
2022-11-14T04:48:18.900Z,32.37
2022-11-14T04:50:46.603Z,39.60
2022-11-14T04:53:13.641Z,40.17
2022-11-14T04:55:40.720Z,37.43
2022-11-14T04:58:07.687Z,35.10
2022-11-14T05:00:34.622Z,42.07
2022-11-14T05:03:01.640Z,34.47
2022-11-14T05:05:29.082Z,41.73
2022-11-14T05:07:55.991Z,35.07
2022-11-14T05:10:23.118Z,32.40
2022-11-14T05:12:54.493Z,32.93
2022-11-14T05:15:21.841Z,37.17
2022-11-14T05:17:48.798Z,33.73
2022-11-14T05:20:15.951Z,35.90
2022-11-14T05:22:42.849Z,35.00
2022-11-14T05:25:10.708Z,32.13
2022-11-14T05:27:37.601Z,30.03
2022-11-14T05:30:05.277Z,32.43
2022-11-14T05:32:32.144Z,34.70
2022-11-14T05:34:59.148Z,31.80
2022-11-14T05:37:26.031Z,27.70
2022-11-14T05:39:53.039Z,31.53
2022-11-14T05:42:19.931Z,29.37
2022-11-14T05:44:46.809Z,29.10
2022-11-14T05:47:13.708Z,24.73
2022-11-14T05:49:40.707Z,24.17
2022-11-14T05:52:07.773Z,31.00
2022-11-14T05:54:34.657Z,26.40
2022-11-14T05:57:01.606Z,26.47
2022-11-14T05:59:28.595Z,25.87
2022-11-14T06:01:55.631Z,28.97
2022-11-14T06:04:22.928Z,25.17
2022-11-14T06:06:49.902Z,32.27
2022-11-14T06:09:17.303Z,29.43
2022-11-14T06:11:44.202Z,28.17
2022-11-14T06:14:11.396Z,24.90
2022-11-14T06:16:38.393Z,31.97
2022-11-14T06:19:05.407Z,34.17
2022-11-14T06:21:32.408Z,30.97
2022-11-14T06:23:59.314Z,35.27
2022-11-14T06:26:31.764Z,33.77
2022-11-14T06:29:00.638Z,29.63
2022-11-14T06:31:28.210Z,34.63
2022-11-14T06:33:55.165Z,32.80
2022-11-14T06:36:22.195Z,34.10
2022-11-14T06:38:49.141Z,36.70
2022-11-14T06:41:21.983Z,30.53
2022-11-14T06:43:54.193Z,29.57
2022-11-14T06:46:23.124Z,33.20
2022-11-14T06:48:52.425Z,31.70
2022-11-14T06:51:19.473Z,30.13
2022-11-14T06:53:46.621Z,30.93
2022-11-14T06:56:16.868Z,29.20
2022-11-14T06:58:49.479Z,26.47
2022-11-14T07:01:20.389Z,29.07
2022-11-14T07:03:48.073Z,30.10
2022-11-14T07:06:21.220Z,31.50
2022-11-14T07:08:48.145Z,28.77
2022-11-14T07:11:25.243Z,29.13
2022-11-14T07:14:00.391Z,27.37
2022-11-14T07:16:36.799Z,24.90
2022-11-14T07:19:09.809Z,28.43
2022-11-14T07:21:37.015Z,26.00
2022-11-14T07:24:04.768Z,25.40
2022-11-14T07:26:34.785Z,24.37
2022-11-14T07:29:02.720Z,25.97
2022-11-14T07:31:30.051Z,25.43
2022-11-14T07:33:56.990Z,25.93
2022-11-14T07:36:24.202Z,26.97
2022-11-14T07:38:51.244Z,28.50
2022-11-14T07:41:19.518Z,25.60
2022-11-14T07:43:47.096Z,24.60
2022-11-14T07:46:16.833Z,24.80
2022-11-14T07:48:44.752Z,22.30
2022-11-14T07:51:18.748Z,26.87
2022-11-14T07:53:45.921Z,21.43
2022-11-14T07:56:13.976Z,23.20
2022-11-14T07:58:41.749Z,19.53
2022-11-14T08:01:12.633Z,21.00
2022-11-14T08:03:45.329Z,23.13
2022-11-14T08:06:16.211Z,19.60
2022-11-14T08:08:43.233Z,22.73
2022-11-14T08:11:10.612Z,25.23
2022-11-14T08:13:37.873Z,21.23
2022-11-14T08:16:13.845Z,21.10
2022-11-14T08:18:41.505Z,19.60
2022-11-14T08:21:08.560Z,18.47
2022-11-14T08:23:35.628Z,19.47
2022-11-14T08:26:03.637Z,18.03
2022-11-14T08:28:31.000Z,19.40
2022-11-14T08:31:03.830Z,18.33
2022-11-14T08:33:31.875Z,17.27
2022-11-14T08:36:04.062Z,17.83
2022-11-14T08:38:33.502Z,17.83
2022-11-14T08:41:02.040Z,15.33
2022-11-14T08:43:29.764Z,15.63
2022-11-14T08:46:02.339Z,15.83
2022-11-14T08:48:31.595Z,17.70
2022-11-14T08:51:04.192Z,18.10
2022-11-14T08:53:31.511Z,17.10
2022-11-14T08:55:58.503Z,15.17
2022-11-14T08:58:30.560Z,17.90
2022-11-14T09:01:05.565Z,19.07
2022-11-14T09:03:33.592Z,16.80
2022-11-14T09:06:02.171Z,16.87
2022-11-14T09:08:30.740Z,16.67
2022-11-14T09:11:05.085Z,20.90
2022-11-14T09:13:34.732Z,18.57
2022-11-14T09:16:02.163Z,19.67
2022-11-14T09:18:31.223Z,18.13
2022-11-14T09:21:04.622Z,18.20
2022-11-14T09:23:32.686Z,18.63
2022-11-14T09:26:07.584Z,17.30
2022-11-14T09:28:35.195Z,16.87
2022-11-14T09:31:11.634Z,19.70
2022-11-14T09:33:39.646Z,16.80
2022-11-14T09:36:10.962Z,18.50
2022-11-14T09:38:38.846Z,19.53
2022-11-14T09:41:21.708Z,16.03
2022-11-14T09:44:26.847Z,15.03
2022-11-14T09:47:09.092Z,15.00
2022-11-14T09:49:45.971Z,16.50
2022-11-14T09:52:36.586Z,12.13
2022-11-14T09:55:21.999Z,14.13
2022-11-14T09:57:50.145Z,13.67
2022-11-14T10:00:21.973Z,13.67
2022-11-14T10:03:14.808Z,14.40
2022-11-14T10:06:03.589Z,15.90
2022-11-14T10:09:02.650Z,16.00
2022-11-14T10:11:34.980Z,13.77
2022-11-14T10:14:48.062Z,12.93
2022-11-14T10:18:13.184Z,14.50
2022-11-14T10:20:53.450Z,14.87
2022-11-14T10:23:52.729Z,14.73
2022-11-14T10:26:31.129Z,12.33
2022-11-14T10:29:47.995Z,13.70
2022-11-14T10:32:45.062Z,14.13
2022-11-14T10:35:19.934Z,13.90
2022-11-14T10:38:11.952Z,14.57
2022-11-14T10:40:50.695Z,14.67
2022-11-14T10:43:48.306Z,13.37
2022-11-14T10:46:27.173Z,12.77
2022-11-14T10:48:59.881Z,13.63
2022-11-14T10:51:44.479Z,15.73
2022-11-14T10:54:17.401Z,13.70
2022-11-14T10:56:49.323Z,15.47
2022-11-14T10:59:16.455Z,14.33
2022-11-14T11:01:58.158Z,12.63
2022-11-14T11:04:30.999Z,20.60
2022-11-14T11:07:44.734Z,13.47
2022-11-14T11:10:42.210Z,14.90
2022-11-14T11:13:15.701Z,14.93
2022-11-14T11:15:43.188Z,14.97
2022-11-14T11:18:29.106Z,14.17
2022-11-14T11:21:13.408Z,13.73
2022-11-14T11:23:57.682Z,16.13
2022-11-14T11:26:30.780Z,15.70
2022-11-14T11:29:09.615Z,12.23
2022-11-14T11:32:08.102Z,14.00
2022-11-14T11:34:35.138Z,15.33
2022-11-14T11:37:21.609Z,13.63
2022-11-14T11:39:56.557Z,15.10
2022-11-14T11:43:16.799Z,15.93
2022-11-14T11:45:20.001Z,14.33
2022-11-14T11:48:19.770Z,15.03
2022-11-14T11:50:48.228Z,15.10
2022-11-14T11:53:28.481Z,14.10
2022-11-14T11:56:04.919Z,11.93
2022-11-14T11:58:48.498Z,11.53
2022-11-14T12:01:16.111Z,11.70
2022-11-14T12:03:51.659Z,15.77
2022-11-14T12:06:25.316Z,11.57
2022-11-14T12:09:48.673Z,13.90
2022-11-14T12:12:40.934Z,12.57
2022-11-14T12:16:13.162Z,13.83
2022-11-14T12:18:46.446Z,13.20
2022-11-14T12:21:45.170Z,12.67
2022-11-14T12:24:45.975Z,13.57
2022-11-14T12:27:29.947Z,12.87
2022-11-14T12:30:16.352Z,12.60
2022-11-14T12:33:12.219Z,13.90
2022-11-14T12:35:56.748Z,14.97
2022-11-14T12:38:24.631Z,14.07
2022-11-14T12:40:58.366Z,16.30
2022-11-14T12:43:37.946Z,14.40
2022-11-14T12:46:09.241Z,18.03
2022-11-14T12:48:38.174Z,14.00
2022-11-14T12:51:29.676Z,15.27
2022-11-14T12:53:58.209Z,14.13
2022-11-14T12:56:32.225Z,12.10
2022-11-14T12:59:24.870Z,10.73
2022-11-14T13:02:16.815Z,14.13
2022-11-14T13:04:56.409Z,10.97
2022-11-14T13:08:35.393Z,11.43
2022-11-14T13:11:51.263Z,11.53
2022-11-14T13:14:38.189Z,9.73
2022-11-14T13:17:35.791Z,11.50
2022-11-14T13:20:48.150Z,11.23
2022-11-14T13:23:30.283Z,10.20
2022-11-14T13:26:13.658Z,11.40
2022-11-14T13:28:52.541Z,10.10
2022-11-14T13:31:26.636Z,11.20
2022-11-14T13:34:00.735Z,11.40
2022-11-14T13:37:02.795Z,12.80
2022-11-14T13:39:57.539Z,9.73
2022-11-14T13:43:02.875Z,9.33
2022-11-14T13:45:58.021Z,14.13
2022-11-14T13:48:47.740Z,10.03
2022-11-14T13:54:18.628Z,12.00
2022-11-14T13:57:21.152Z,10.50
2022-11-14T13:59:53.482Z,10.47
2022-11-14T14:02:53.974Z,10.43
2022-11-14T14:05:39.885Z,10.10
2022-11-14T14:08:23.690Z,17.03
2022-11-14T14:11:03.309Z,11.00
2022-11-14T14:13:55.420Z,16.07
2022-11-14T14:17:01.637Z,11.10
2022-11-14T14:19:58.811Z,13.90
2022-11-14T14:23:04.742Z,10.97
2022-11-14T14:25:44.937Z,10.80
2022-11-14T14:28:56.213Z,12.57
2022-11-14T14:31:23.902Z,10.33
2022-11-14T14:33:52.548Z,9.93
2022-11-14T14:36:28.752Z,12.23
2022-11-14T14:39:25.284Z,7.47
2022-11-14T14:41:56.751Z,8.00
2022-11-14T14:44:38.545Z,11.27
2022-11-14T14:47:39.588Z,10.90
2022-11-14T14:50:27.408Z,8.80
2022-11-14T14:53:00.790Z,11.40
2022-11-14T14:55:35.786Z,11.20
2022-11-14T14:58:27.379Z,10.47
2022-11-14T15:01:27.103Z,8.50
2022-11-14T15:04:04.084Z,11.17
2022-11-14T15:06:37.920Z,12.20
2022-11-14T15:09:14.671Z,9.57
2022-11-14T15:11:44.570Z,9.93
2022-11-14T15:14:16.569Z,18.27
2022-11-14T15:16:46.929Z,16.50
2022-11-14T15:19:18.373Z,23.00
2022-11-14T15:21:45.861Z,19.50
2022-11-14T15:24:20.026Z,17.90
2022-11-14T15:26:49.843Z,19.27
2022-11-14T15:29:21.472Z,15.00
2022-11-14T15:32:02.134Z,15.17
2022-11-14T15:34:35.421Z,12.87
2022-11-14T15:37:10.286Z,11.57
2022-11-14T15:39:38.145Z,13.50
2022-11-14T15:42:26.905Z,16.77
2022-11-14T15:44:59.561Z,15.20
2022-11-14T15:50:33.529Z,23.37
2022-11-14T15:53:28.414Z,17.70
2022-11-14T15:56:08.403Z,15.80
2022-11-14T15:58:44.107Z,15.57
2022-11-14T16:01:27.139Z,18.23
2022-11-14T16:04:02.905Z,15.10
2022-11-14T16:06:36.798Z,16.40
2022-11-14T16:09:07.880Z,25.23
2022-11-14T16:11:36.871Z,26.40
2022-11-14T16:14:08.563Z,20.80
2022-11-14T16:16:37.073Z,22.00
2022-11-14T16:19:14.907Z,20.20
2022-11-14T16:21:46.663Z,36.80
2022-11-14T16:24:20.714Z,95.57
2022-11-14T16:26:54.622Z,67.13
2022-11-14T16:29:26.855Z,36.03
2022-11-14T16:32:03.596Z,23.43
2022-11-14T16:34:33.941Z,32.27
2022-11-14T16:37:04.163Z,16.17
2022-11-14T16:39:32.358Z,14.10
2022-11-14T16:42:04.149Z,19.93
2022-11-14T16:44:40.236Z,12.77
2022-11-14T16:47:15.135Z,13.50
2022-11-14T16:49:44.812Z,17.10
2022-11-14T16:52:15.932Z,13.00
2022-11-14T16:54:44.232Z,14.70
2022-11-14T16:57:12.136Z,14.60
2022-11-14T16:59:48.362Z,12.90
2022-11-14T17:02:17.910Z,15.00
2022-11-14T17:04:48.618Z,13.20
2022-11-14T17:07:23.153Z,13.97
2022-11-14T17:09:51.993Z,13.97
2022-11-14T17:12:20.048Z,11.33
2022-11-14T17:14:51.763Z,10.43
2022-11-14T17:17:25.016Z,11.47
2022-11-14T17:19:56.784Z,11.50
2022-11-14T17:22:28.279Z,14.57
2022-11-14T17:24:59.132Z,13.50
2022-11-14T17:27:28.457Z,11.00
2022-11-14T17:29:57.009Z,11.23
2022-11-14T17:32:32.136Z,18.80
2022-11-14T17:35:00.581Z,17.53
2022-11-14T17:37:31.398Z,16.40
2022-11-14T17:40:05.919Z,31.30
2022-11-14T17:42:37.988Z,46.33
2022-11-14T17:45:10.428Z,30.83
2022-11-14T17:47:39.122Z,25.20
2022-11-14T17:50:11.372Z,17.30
2022-11-14T17:52:42.171Z,43.67
2022-11-14T17:55:11.460Z,67.70
2022-11-14T17:57:41.064Z,83.87
2022-11-14T18:00:18.144Z,68.90
2022-11-14T18:02:52.583Z,39.20
2022-11-14T18:05:20.942Z,19.27
2022-11-14T18:07:56.024Z,16.43
2022-11-14T18:10:24.562Z,15.57
2022-11-14T18:12:56.954Z,18.17
2022-11-14T18:15:29.017Z,25.33
2022-11-14T18:17:57.265Z,23.10
2022-11-14T18:20:31.611Z,23.40
2022-11-14T18:22:59.559Z,19.40
2022-11-14T18:25:36.927Z,20.50
2022-11-14T18:28:06.579Z,18.23
2022-11-14T18:30:46.716Z,15.03
2022-11-14T18:33:15.913Z,22.43
2022-11-14T18:35:50.133Z,28.60
2022-11-14T18:38:18.973Z,32.33
2022-11-14T18:40:55.814Z,29.03
2022-11-14T18:43:30.454Z,18.60
2022-11-14T18:46:22.151Z,30.93
2022-11-14T18:49:00.868Z,17.57
2022-11-14T18:51:42.314Z,21.30
2022-11-14T18:54:20.887Z,22.00
2022-11-14T18:56:52.505Z,19.13
2022-11-14T18:59:27.308Z,16.70
2022-11-14T19:01:58.764Z,18.00
2022-11-14T19:04:26.927Z,15.80
2022-11-14T19:07:03.019Z,16.60
2022-11-14T19:09:31.803Z,21.00
2022-11-14T19:12:30.946Z,17.57
2022-11-14T19:15:02.600Z,18.57
2022-11-14T19:17:31.470Z,22.90
2022-11-14T19:20:02.712Z,18.43
2022-11-14T19:22:38.317Z,21.10
2022-11-14T19:25:12.563Z,17.67
2022-11-14T19:27:46.378Z,14.70
2022-11-14T19:30:22.703Z,17.37
2022-11-14T19:32:52.052Z,15.37
2022-11-14T19:35:20.741Z,14.60
2022-11-14T19:37:49.354Z,14.40
2022-11-14T19:40:22.803Z,12.93
2022-11-14T19:42:58.083Z,15.40
2022-11-14T19:45:29.185Z,17.43
2022-11-14T19:47:57.788Z,16.63
2022-11-14T19:50:30.775Z,15.87
2022-11-14T19:52:59.525Z,15.60
2022-11-14T19:55:32.671Z,14.17
2022-11-14T19:58:01.334Z,17.73
2022-11-14T20:00:29.715Z,13.93
2022-11-14T20:03:05.591Z,17.20
2022-11-14T20:05:36.633Z,18.43
2022-11-14T20:08:07.358Z,15.73
2022-11-14T20:10:47.987Z,11.37
2022-11-14T20:13:21.843Z,15.37
2022-11-14T20:15:52.756Z,16.53
2022-11-14T20:18:21.057Z,11.83
2022-11-14T20:20:52.383Z,12.10
2022-11-14T20:23:22.110Z,14.10
2022-11-14T20:26:05.923Z,16.07
2022-11-14T20:28:43.546Z,18.27
2022-11-14T20:31:19.618Z,13.03
2022-11-14T20:33:56.281Z,15.20
2022-11-14T20:36:56.712Z,15.97
2022-11-14T20:39:24.071Z,14.97
2022-11-14T20:41:55.807Z,15.70
2022-11-14T20:44:33.150Z,17.97
2022-11-14T20:47:05.152Z,15.93
2022-11-14T20:49:39.839Z,16.60
2022-11-14T20:52:07.751Z,17.30
2022-11-14T20:54:35.894Z,18.70
2022-11-14T20:57:09.817Z,19.43
2022-11-14T20:59:38.111Z,19.37
2022-11-14T21:02:12.386Z,16.87
2022-11-14T21:04:47.933Z,13.60
2022-11-14T21:07:22.245Z,14.90
2022-11-14T21:10:13.750Z,14.93
2022-11-14T21:13:04.945Z,14.00
2022-11-14T21:15:35.381Z,16.40
2022-11-14T21:18:04.880Z,17.13
2022-11-14T21:20:33.034Z,19.27
2022-11-14T21:23:03.582Z,23.13
2022-11-14T21:25:31.650Z,20.17
2022-11-14T21:28:09.025Z,18.70
2022-11-14T21:30:38.971Z,19.27
2022-11-14T21:33:18.681Z,17.53
2022-11-14T21:35:52.834Z,18.27
2022-11-14T21:38:26.983Z,27.50
2022-11-14T21:41:01.637Z,17.30
2022-11-14T21:43:30.908Z,19.60
2022-11-14T21:46:08.264Z,19.63
2022-11-14T21:48:42.260Z,17.13
2022-11-14T21:51:28.465Z,20.33
2022-11-14T21:53:59.842Z,18.53
2022-11-14T21:56:33.583Z,20.00
2022-11-14T21:59:13.259Z,17.03
2022-11-14T22:02:12.638Z,17.07
2022-11-14T22:04:46.665Z,17.43
2022-11-14T22:07:17.957Z,17.23
2022-11-14T22:09:51.616Z,17.10
2022-11-14T22:12:25.706Z,18.67
2022-11-14T22:14:53.801Z,15.87
2022-11-14T22:17:21.871Z,16.80
2022-11-14T22:19:50.149Z,18.30
2022-11-14T22:22:20.946Z,17.37
2022-11-14T22:24:48.939Z,15.50
2022-11-14T22:27:20.689Z,16.50
2022-11-14T22:29:49.174Z,18.37
2022-11-14T22:32:21.495Z,13.83
2022-11-14T22:34:49.566Z,14.70
2022-11-14T22:37:21.293Z,11.93
2022-11-14T22:39:49.364Z,13.07
2022-11-14T22:42:24.843Z,23.60
2022-11-14T22:44:53.141Z,13.47
2022-11-14T22:47:21.304Z,17.60
2022-11-14T22:49:51.926Z,12.70
2022-11-14T22:52:22.522Z,12.73
2022-11-14T22:54:55.817Z,14.53
2022-11-14T22:57:23.886Z,14.10
2022-11-14T22:59:54.689Z,13.80
2022-11-14T23:02:26.587Z,11.73
2022-11-14T23:04:59.651Z,14.40
2022-11-14T23:07:36.377Z,14.50
2022-11-14T23:10:06.509Z,12.90
2022-11-14T23:12:37.142Z,10.57
2022-11-14T23:15:05.760Z,10.60
2022-11-14T23:17:38.848Z,12.50
2022-11-14T23:20:13.589Z,11.97
2022-11-14T23:22:44.520Z,10.10
2022-11-14T23:25:16.896Z,11.30
2022-11-14T23:27:56.860Z,13.60
2022-11-14T23:30:26.971Z,11.90
2022-11-14T23:32:54.711Z,9.80
2022-11-14T23:35:24.967Z,10.07
2022-11-14T23:37:53.227Z,10.03
2022-11-14T23:40:21.301Z,10.53
2022-11-14T23:42:52.638Z,10.67
2022-11-14T23:45:24.394Z,12.80
2022-11-14T23:47:53.826Z,10.57
2022-11-14T23:50:22.690Z,12.03
2022-11-14T23:52:51.606Z,12.00
2022-11-14T23:55:21.167Z,16.90
2022-11-14T23:57:52.209Z,12.63
